Time;durP1;ratioP1;P1;durP2;ratioP2;P2;SDS_P1;SDS_P2;PMS_P1;PMS_P2;Temp;Humidity;BMP_temperature;BMP_pressure;BME280_temperature;BME280_humidity;BME280_pressure;Samples;Min_cycle;Max_cycle;Signal;HPM_P1;HPM_P2
2020/12/29 00:01:39;;;;;;;11.47;7.00;;;2.30;91.70;;;;;;5086391;28;20786;-69
2020/12/29 00:04:08;;;;;;;8.40;5.50;;;2.20;91.70;;;;;;5090860;28;20877;-70
2020/12/29 00:06:45;;;;;;;11.02;7.03;;;2.20;91.80;;;;;;5070678;28;20459;-69
2020/12/29 00:09:13;;;;;;;10.25;5.30;;;2.10;91.80;;;;;;5070552;28;20399;-69
2020/12/29 00:11:43;;;;;;;7.32;3.90;;;2.10;91.80;;;;;;5067872;28;20399;-69
2020/12/29 00:14:10;;;;;;;7.53;4.18;;;2.00;92.00;;;;;;5071359;28;20961;-69
2020/12/29 00:16:37;;;;;;;4.35;3.08;;;2.00;91.90;;;;;;5067367;28;20495;-69
2020/12/29 00:19:10;;;;;;;3.72;2.38;;;1.90;92.00;;;;;;5070298;28;20396;-69
2020/12/29 00:21:38;;;;;;;2.70;1.90;;;1.90;92.10;;;;;;5068162;28;20451;-69
2020/12/29 00:24:05;;;;;;;3.25;2.13;;;1.90;92.00;;;;;;5070155;28;20453;-69
2020/12/29 00:26:31;;;;;;;4.80;2.53;;;1.80;92.20;;;;;;5068291;28;20477;-69
2020/12/29 00:28:57;;;;;;;4.43;2.80;;;1.70;92.20;;;;;;5070151;28;20411;-69
2020/12/29 00:31:27;;;;;;;4.38;3.00;;;1.60;92.30;;;;;;5068130;28;20713;-69
2020/12/29 00:33:56;;;;;;;4.40;2.67;;;1.60;92.60;;;;;;5070553;28;20400;-69
2020/12/29 00:36:25;;;;;;;10.40;6.30;;;1.50;92.40;;;;;;5068542;28;20876;-69
2020/12/29 00:38:53;;;;;;;6.65;4.60;;;1.40;92.60;;;;;;5070147;28;20430;-69
2020/12/29 00:41:22;;;;;;;5.32;3.33;;;1.40;92.90;;;;;;5069740;28;20990;-69
2020/12/29 00:43:48;;;;;;;5.18;2.47;;;1.40;93.00;;;;;;5066549;28;20436;-69
2020/12/29 00:46:20;;;;;;;5.30;2.43;;;1.40;93.20;;;;;;5069773;28;20429;-69
2020/12/29 00:48:47;;;;;;;7.18;3.90;;;1.40;93.30;;;;;;5066486;28;20481;-69
2020/12/29 00:51:21;;;;;;;11.32;5.70;;;1.40;93.20;;;;;;5069815;28;20404;-69
2020/12/29 00:53:50;;;;;;;11.05;5.90;;;1.30;93.50;;;;;;5067316;28;20435;-69
2020/12/29 00:56:16;;;;;;;11.05;5.50;;;1.30;93.30;;;;;;5071286;28;20771;-69
2020/12/29 00:58:43;;;;;;;10.13;5.20;;;1.30;93.60;;;;;;5067720;28;20441;-71
2020/12/29 01:01:10;;;;;;;10.13;5.63;;;1.20;93.60;;;;;;5069848;28;20423;-72
2020/12/29 01:03:38;;;;;;;10.33;5.47;;;1.20;93.70;;;;;;5067325;28;20399;-69
2020/12/29 01:06:05;;;;;;;10.10;5.35;;;1.10;93.70;;;;;;5069778;28;20416;-69
2020/12/29 01:08:32;;;;;;;6.38;3.65;;;1.10;93.80;;;;;;5066572;28;20451;-69
2020/12/29 01:10:59;;;;;;;6.28;3.10;;;1.20;94.10;;;;;;5069859;28;20400;-69
2020/12/29 01:13:26;;;;;;;5.85;2.80;;;1.30;93.40;;;;;;5070704;28;20485;-69
2020/12/29 01:15:55;;;;;;;7.05;3.45;;;1.20;93.20;;;;;;5067958;28;20828;-69
2020/12/29 01:18:22;;;;;;;7.53;3.70;;;1.20;93.40;;;;;;5069796;28;20500;-69
2020/12/29 01:20:49;;;;;;;7.35;3.78;;;1.10;93.30;;;;;;5065407;28;20883;-69
2020/12/29 01:23:16;;;;;;;8.75;4.25;;;1.10;93.40;;;;;;5069792;28;20407;-69
2020/12/29 01:25:43;;;;;;;11.77;5.15;;;1.00;93.50;;;;;;5065911;28;20399;-69
2020/12/29 01:28:10;;;;;;;7.75;4.38;;;1.10;93.50;;;;;;5070050;28;20490;-69
2020/12/29 01:30:44;;;;;;;5.77;3.00;;;1.00;93.80;;;;;;5066257;28;20449;-69
2020/12/29 01:33:13;;;;;;;6.57;3.15;;;1.00;93.70;;;;;;5069518;28;20424;-69
2020/12/29 01:35:40;;;;;;;8.77;4.68;;;1.00;93.70;;;;;;5067005;28;20796;-69
2020/12/29 01:38:06;;;;;;;13.17;6.90;;;0.90;93.50;;;;;;5070369;28;20422;-69
2020/12/29 01:40:37;;;;;;;14.25;6.35;;;0.80;93.60;;;;;;5066862;28;20461;-69
2020/12/29 01:43:04;;;;;;;8.20;4.55;;;0.70;93.70;;;;;;5069865;28;20466;-69
2020/12/29 01:45:30;;;;;;;8.48;4.60;;;0.70;93.80;;;;;;5065702;28;20489;-69
2020/12/29 01:47:57;;;;;;;9.45;4.50;;;0.60;93.90;;;;;;5069961;28;20400;-69
2020/12/29 01:50:24;;;;;;;8.85;4.88;;;0.50;93.80;;;;;;5070067;28;20782;-69
2020/12/29 01:52:59;;;;;;;14.10;7.70;;;0.40;93.80;;;;;;5065672;28;20443;-69
2020/12/29 01:55:29;;;;;;;16.65;7.90;;;0.30;93.90;;;;;;5069221;28;20411;-69
2020/12/29 01:57:59;;;;;;;19.30;11.40;;;0.30;93.90;;;;;;5066452;28;20961;-69
2020/12/29 02:00:28;;;;;;;17.00;10.32;;;0.20;94.00;;;;;;5069782;28;20431;-69
2020/12/29 02:02:56;;;;;;;25.02;14.00;;;0.10;93.90;;;;;;5066837;28;20411;-69
2020/12/29 02:05:27;;;;;;;36.30;21.40;;;0.10;94.10;;;;;;5069174;28;20404;-69
2020/12/29 02:07:54;;;;;;;34.83;19.88;;;0.10;94.40;;;;;;5066554;28;20837;-69
2020/12/29 02:10:20;;;;;;;25.90;15.63;;;0.10;94.50;;;;;;5069140;28;20443;-69
2020/12/29 02:12:47;;;;;;;23.35;13.45;;;0.00;94.60;;;;;;5065992;28;20474;-69
2020/12/29 02:15:15;;;;;;;18.83;11.32;;;0.00;94.70;;;;;;5070104;28;20469;-69
2020/12/29 02:17:42;;;;;;;20.63;12.45;;;-0.10;94.50;;;;;;5066178;28;20445;-71
2020/12/29 02:20:08;;;;;;;23.02;13.65;;;-0.20;94.50;;;;;;5069059;28;20451;-71
2020/12/29 02:22:35;;;;;;;21.20;13.73;;;-0.30;94.60;;;;;;5066786;28;20506;-71
2020/12/29 02:25:04;;;;;;;23.27;13.35;;;-0.30;94.50;;;;;;5069055;28;20400;-71
2020/12/29 02:27:35;;;;;;;29.00;14.82;;;-0.40;94.50;;;;;;5069753;28;20489;-72
2020/12/29 02:30:03;;;;;;;22.90;12.82;;;-0.40;94.90;;;;;;5065062;28;20403;-69
2020/12/29 02:32:36;;;;;;;15.43;8.50;;;-0.30;95.10;;;;;;5071882;28;20792;-69
2020/12/29 02:35:03;;;;;;;17.63;9.07;;;-0.30;95.20;;;;;;5069185;28;20408;-69
2020/12/29 02:37:36;;;;;;;18.55;10.50;;;-0.30;95.00;;;;;;5073443;28;20400;-69
2020/12/29 02:40:05;;;;;;;12.23;7.90;;;-0.30;94.90;;;;;;5069769;28;20460;-69
2020/12/29 02:42:32;;;;;;;11.73;6.47;;;-0.40;94.90;;;;;;5073267;28;20403;-69
2020/12/29 02:44:58;;;;;;;9.38;5.97;;;-0.40;95.30;;;;;;5069842;28;20403;-69
2020/12/29 02:47:25;;;;;;;9.05;5.53;;;-0.40;95.20;;;;;;5072181;28;20412;-69
2020/12/29 02:49:51;;;;;;;9.13;5.13;;;-0.40;95.30;;;;;;5077522;28;20433;-69
2020/12/29 02:52:18;;;;;;;7.28;4.82;;;-0.50;95.30;;;;;;5093390;28;20786;-68
2020/12/29 02:54:44;;;;;;;6.57;3.42;;;-0.50;95.20;;;;;;5084037;28;20473;-69
2020/12/29 02:57:10;;;;;;;6.57;4.10;;;-0.50;95.40;;;;;;5073485;28;20412;-69
2020/12/29 02:59:37;;;;;;;5.28;3.53;;;-0.60;95.40;;;;;;5069554;28;20440;-69
2020/12/29 03:02:03;;;;;;;7.30;3.70;;;-0.60;95.20;;;;;;5072782;28;20516;-69
2020/12/29 03:04:29;;;;;;;6.28;3.83;;;-0.60;95.40;;;;;;5072768;28;20500;-71
2020/12/29 03:06:56;;;;;;;7.53;3.80;;;-0.60;95.50;;;;;;5069769;28;20912;-71
2020/12/29 03:09:22;;;;;;;6.95;3.63;;;-0.50;95.50;;;;;;5072884;28;20420;-71
2020/12/29 03:11:48;;;;;;;4.93;3.53;;;-0.50;95.50;;;;;;5069316;28;20439;-68
2020/12/29 03:14:15;;;;;;;5.03;3.72;;;-0.50;95.40;;;;;;5073113;28;20843;-69
2020/12/29 03:16:44;;;;;;;7.72;4.40;;;-0.50;95.20;;;;;;5068368;28;20444;-68
2020/12/29 03:19:24;;;;;;;7.68;5.78;;;-0.60;95.20;;;;;;5072196;28;20411;-69
2020/12/29 03:21:52;;;;;;;8.70;6.30;;;-0.60;95.30;;;;;;5067976;28;20451;-69
2020/12/29 03:24:19;;;;;;;11.35;7.32;;;-0.60;95.50;;;;;;5072484;28;20774;-69
2020/12/29 03:26:46;;;;;;;13.80;7.90;;;-0.70;95.60;;;;;;5068321;28;20412;-69
2020/12/29 03:29:12;;;;;;;11.38;7.85;;;-0.70;95.40;;;;;;5072079;28;20524;-69
2020/12/29 03:31:45;;;;;;;13.73;7.60;;;-0.70;95.30;;;;;;5069479;28;20468;-69
2020/12/29 03:34:27;;;;;;;10.52;6.85;;;-0.80;95.40;;;;;;5072378;28;20419;-69
2020/12/29 03:36:56;;;;;;;10.27;6.40;;;-0.80;95.30;;;;;;5068978;28;20465;-69
2020/12/29 03:39:22;;;;;;;10.75;6.25;;;-0.90;95.30;;;;;;5072040;28;20408;-69
2020/12/29 03:41:49;;;;;;;11.33;7.23;;;-0.80;95.80;;;;;;5072254;28;20431;-69
2020/12/29 03:44:15;;;;;;;10.88;7.47;;;-0.70;95.60;;;;;;5068359;28;20501;-69
2020/12/29 03:46:44;;;;;;;11.93;7.30;;;-0.80;95.50;;;;;;5072217;28;20404;-69
2020/12/29 03:49:12;;;;;;;8.27;5.15;;;-0.80;95.40;;;;;;5068604;28;20411;-69
2020/12/29 03:51:39;;;;;;;7.80;4.75;;;-0.90;95.50;;;;;;5072047;28;20438;-69
2020/12/29 03:54:05;;;;;;;5.72;3.95;;;-0.90;95.50;;;;;;5067538;28;20407;-69
2020/12/29 03:56:32;;;;;;;7.10;3.72;;;-0.90;95.50;;;;;;5070888;28;20423;-68
2020/12/29 03:58:58;;;;;;;5.05;3.53;;;-0.90;95.40;;;;;;5068607;28;20439;-69
2020/12/29 04:01:24;;;;;;;4.90;3.20;;;-1.00;95.30;;;;;;5071206;28;20501;-68
2020/12/29 04:03:51;;;;;;;6.55;3.50;;;-1.10;95.20;;;;;;5068626;28;20485;-69
2020/12/29 04:06:17;;;;;;;6.15;3.08;;;-1.10;95.20;;;;;;5071737;28;20412;-69
2020/12/29 04:08:43;;;;;;;5.60;3.30;;;-1.20;95.40;;;;;;5068493;28;21118;-69
2020/12/29 04:11:14;;;;;;;7.30;3.40;;;-1.20;95.40;;;;;;5070902;28;20485;-69
2020/12/29 04:13:52;;;;;;;6.72;2.95;;;-1.20;95.40;;;;;;5067439;28;20438;-68
2020/12/29 04:16:25;;;;;;;5.47;3.45;;;-1.30;95.10;;;;;;5070675;28;20836;-68
2020/12/29 04:18:51;;;;;;;5.25;3.60;;;-1.30;95.70;;;;;;5071164;28;20408;-69
2020/12/29 04:21:18;;;;;;;4.53;2.85;;;-1.30;95.80;;;;;;5067946;28;20451;-69
2020/12/29 04:23:49;;;;;;;5.88;3.20;;;-1.10;96.00;;;;;;5071214;28;20407;-69
2020/12/29 04:26:16;;;;;;;6.20;3.20;;;-1.00;95.80;;;;;;5067033;28;20434;-69
2020/12/29 04:28:42;;;;;;;5.30;3.10;;;-0.80;95.40;;;;;;5071000;28;20412;-69
2020/12/29 04:31:12;;;;;;;4.28;3.00;;;-0.90;95.10;;;;;;5067864;28;20824;-69
2020/12/29 04:33:42;;;;;;;7.50;3.20;;;-1.10;95.20;;;;;;5071708;28;20721;-69
2020/12/29 04:36:11;;;;;;;8.30;4.90;;;-1.20;95.60;;;;;;5067118;28;20415;-69
2020/12/29 04:38:38;;;;;;;8.90;4.70;;;-1.20;95.80;;;;;;5070285;28;20457;-69
2020/12/29 04:41:05;;;;;;;8.23;4.93;;;-1.20;95.70;;;;;;5067504;28;20459;-69
2020/12/29 04:43:33;;;;;;;6.65;4.90;;;-1.30;95.60;;;;;;5070013;28;20465;-69
2020/12/29 04:46:03;;;;;;;8.23;4.78;;;-1.30;95.70;;;;;;5067612;28;20403;-69
2020/12/29 04:48:30;;;;;;;7.13;4.60;;;-1.40;95.60;;;;;;5070871;28;20424;-69
2020/12/29 04:51:05;;;;;;;6.10;4.50;;;-1.40;95.40;;;;;;5068171;28;20465;-69
2020/12/29 04:53:35;;;;;;;6.75;4.82;;;-1.50;95.60;;;;;;5069634;28;20427;-69
2020/12/29 04:56:07;;;;;;;11.52;5.57;;;-1.50;95.70;;;;;;5069509;28;20508;-69
2020/12/29 04:58:36;;;;;;;9.52;5.68;;;-1.30;96.20;;;;;;5090288;28;20409;-69
2020/12/29 05:01:12;;;;;;;8.50;5.85;;;-1.20;95.90;;;;;;5070477;28;20424;-69
2020/12/29 05:03:49;;;;;;;11.52;7.55;;;-1.30;95.80;;;;;;5067642;28;20404;-69
2020/12/29 05:06:16;;;;;;;19.45;9.32;;;-1.30;96.10;;;;;;5071005;28;20400;-69
2020/12/29 05:08:47;;;;;;;12.48;7.63;;;-1.30;96.50;;;;;;5066973;28;20814;-69
2020/12/29 05:11:15;;;;;;;10.02;6.63;;;-1.40;96.20;;;;;;5069505;28;20414;-69
2020/12/29 05:13:44;;;;;;;9.68;6.20;;;-1.50;96.10;;;;;;5066383;28;20404;-69
2020/12/29 05:16:11;;;;;;;10.90;6.15;;;-1.50;96.40;;;;;;5070547;28;20442;-69
2020/12/29 05:18:37;;;;;;;10.60;6.13;;;-1.50;96.30;;;;;;5066018;28;20412;-69
2020/12/29 05:21:04;;;;;;;13.63;6.78;;;-1.50;96.10;;;;;;5070301;28;20451;-69
2020/12/29 05:23:31;;;;;;;13.82;8.52;;;-1.60;96.00;;;;;;5074009;28;20412;-69
2020/12/29 05:25:58;;;;;;;13.32;8.48;;;-1.60;96.00;;;;;;5090343;28;20445;-69
2020/12/29 05:28:28;;;;;;;18.20;9.55;;;-1.60;95.80;;;;;;5081253;28;20427;-69
2020/12/29 05:30:56;;;;;;;18.10;8.77;;;-1.70;95.90;;;;;;5070492;28;20403;-69
2020/12/29 05:33:25;;;;;;;15.20;8.50;;;-1.70;95.80;;;;;;5067564;28;20414;-69
2020/12/29 05:35:56;;;;;;;13.98;8.68;;;-1.80;95.90;;;;;;5069343;28;20508;-69
2020/12/29 05:38:23;;;;;;;10.52;6.95;;;-1.70;96.10;;;;;;5069491;28;20465;-69
2020/12/29 05:40:50;;;;;;;11.75;7.07;;;-1.70;96.30;;;;;;5066855;28;20423;-69
2020/12/29 05:43:31;;;;;;;11.50;6.53;;;-1.70;96.70;;;;;;5070132;28;20466;-69
2020/12/29 05:46:06;;;;;;;13.80;6.80;;;-1.70;96.50;;;;;;5066938;28;20462;-69
2020/12/29 05:48:33;;;;;;;10.27;6.68;;;-1.70;96.30;;;;;;5070063;28;20412;-69
2020/12/29 05:51:15;;;;;;;13.10;7.60;;;-1.80;96.00;;;;;;5081270;28;20861;-69
2020/12/29 05:53:42;;;;;;;16.05;7.72;;;-1.70;96.40;;;;;;5089352;28;20410;-69
2020/12/29 05:56:12;;;;;;;11.52;7.10;;;-1.70;96.80;;;;;;5071446;28;20416;-69
2020/12/29 05:58:38;;;;;;;13.82;7.20;;;-1.80;96.60;;;;;;5069120;28;20461;-69
2020/12/29 06:01:10;;;;;;;12.25;7.00;;;-1.80;96.50;;;;;;5066520;28;20419;-69
2020/12/29 06:03:38;;;;;;;15.15;7.05;;;-1.90;96.40;;;;;;5070147;28;20431;-69
2020/12/29 06:06:08;;;;;;;14.98;8.00;;;-1.90;96.40;;;;;;5068263;28;20407;-69
2020/12/29 06:08:56;;;;;;;11.68;7.80;;;-1.80;96.50;;;;;;5073089;28;20411;-69
2020/12/29 06:11:35;;;;;;;13.10;7.15;;;-1.80;96.50;;;;;;5070192;28;20411;-69
2020/12/29 06:14:01;;;;;;;12.73;7.45;;;-1.80;96.50;;;;;;5073559;28;20930;-69
2020/12/29 06:16:32;;;;;;;13.32;7.90;;;-1.80;96.30;;;;;;5071563;28;20826;-69
2020/12/29 06:19:04;;;;;;;12.48;7.00;;;-1.80;96.20;;;;;;5073887;28;20465;-69
2020/12/29 06:21:36;;;;;;;12.45;7.13;;;-1.90;96.10;;;;;;5069269;28;20557;-69
2020/12/29 06:24:03;;;;;;;9.73;6.47;;;-1.90;96.30;;;;;;5072622;28;20407;-69
2020/12/29 06:26:33;;;;;;;11.03;6.80;;;-1.90;96.10;;;;;;5071213;28;21125;-69
2020/12/29 06:29:02;;;;;;;11.15;6.57;;;-2.00;95.90;;;;;;5092780;28;20432;-69
2020/12/29 06:31:30;;;;;;;12.73;6.72;;;-2.10;95.80;;;;;;5090679;28;20919;-69
2020/12/29 06:33:57;;;;;;;11.57;7.20;;;-2.10;95.80;;;;;;5072131;28;20399;-69
2020/12/29 06:36:28;;;;;;;17.55;11.50;;;-2.10;95.80;;;;;;5072368;28;20844;-69
2020/12/29 06:39:03;;;;;;;15.77;8.93;;;-2.10;96.00;;;;;;5070751;28;20737;-69
2020/12/29 06:41:33;;;;;;;20.95;10.43;;;-2.20;96.00;;;;;;5072407;28;20755;-69
2020/12/29 06:44:05;;;;;;;19.80;9.85;;;-2.20;96.30;;;;;;5085078;28;20436;-69
2020/12/29 06:46:32;;;;;;;17.13;9.77;;;-2.20;96.40;;;;;;5093891;28;20843;-69
2020/12/29 06:49:21;;;;;;;17.23;9.30;;;-2.20;96.40;;;;;;5075556;28;20400;-69
2020/12/29 06:52:08;;;;;;;17.48;8.73;;;-2.20;96.30;;;;;;5073203;28;20424;-69
2020/12/29 06:54:47;;;;;;;16.40;8.70;;;-2.20;95.90;;;;;;5066074;28;20480;-68
2020/12/29 06:57:14;;;;;;;16.17;8.60;;;-2.20;96.00;;;;;;5072270;28;20491;-68
2020/12/29 06:59:41;;;;;;;15.50;8.55;;;-2.20;96.10;;;;;;5068427;28;20407;-69
2020/12/29 07:02:18;;;;;;;722.72;267.35;;;-2.10;96.00;;;;;;5072056;28;20419;-68
2020/12/29 07:04:54;;;;;;;348.38;115.85;;;-2.20;95.90;;;;;;5069899;28;20416;-68
2020/12/29 07:07:34;;;;;;;583.95;207.27;;;-2.20;96.00;;;;;;5072768;28;20473;-68
2020/12/29 07:10:12;;;;;;;286.38;95.90;;;-2.20;95.90;;;;;;5068504;28;20461;-68
2020/12/29 07:12:51;;;;;;;199.82;67.70;;;-2.20;95.80;;;;;;5071570;28;20895;-68
2020/12/29 07:15:24;;;;;;;127.45;45.85;;;-2.20;95.80;;;;;;5068191;28;20721;-68
2020/12/29 07:18:00;;;;;;;40.03;17.90;;;-2.20;95.80;;;;;;5070932;28;20431;-68
2020/12/29 07:20:34;;;;;;;22.17;10.73;;;-2.00;96.00;;;;;;5069242;28;20450;-68
2020/12/29 07:23:10;;;;;;;17.23;9.13;;;-2.00;95.90;;;;;;5071755;28;20518;-68
2020/12/29 07:25:36;;;;;;;19.33;9.77;;;-2.00;95.70;;;;;;5068234;28;20423;-68
2020/12/29 07:28:09;;;;;;;16.17;8.95;;;-2.00;95.80;;;;;;5071539;28;20423;-68
2020/12/29 07:30:36;;;;;;;15.07;8.20;;;-2.00;96.00;;;;;;5068686;28;20538;-68
2020/12/29 07:33:04;;;;;;;14.70;8.57;;;-2.00;95.90;;;;;;5071798;28;20408;-68
2020/12/29 07:35:35;;;;;;;15.93;8.25;;;-2.10;95.80;;;;;;5068830;28;20430;-68
2020/12/29 07:38:25;;;;;;;19.77;8.85;;;-2.10;95.90;;;;;;5072485;28;20416;-68
2020/12/29 07:40:52;;;;;;;12.60;7.50;;;-2.00;96.20;;;;;;5061527;28;20519;-68
2020/12/29 07:43:19;;;;;;;18.08;8.20;;;-2.00;96.00;;;;;;5051350;28;20409;-68
2020/12/29 07:45:46;;;;;;;16.65;7.65;;;-2.00;96.10;;;;;;5066118;28;20412;-68
2020/12/29 07:48:12;;;;;;;15.50;7.68;;;-2.00;95.90;;;;;;5071415;28;21047;-68
2020/12/29 07:50:40;;;;;;;14.13;6.93;;;-2.00;95.90;;;;;;5071417;28;20559;-68
2020/12/29 07:53:11;;;;;;;12.77;7.20;;;-2.00;95.80;;;;;;5067672;28;20411;-68
2020/12/29 07:55:42;;;;;;;13.40;7.38;;;-2.10;95.90;;;;;;5071373;28;20404;-68
2020/12/29 07:58:11;;;;;;;15.15;8.02;;;-2.10;95.60;;;;;;5055239;28;20411;-68
2020/12/29 08:00:39;;;;;;;20.30;10.50;;;-2.10;95.70;;;;;;5067893;28;20404;-68
2020/12/29 08:03:06;;;;;;;22.57;11.20;;;-2.00;95.70;;;;;;5067535;28;20440;-68
2020/12/29 08:05:34;;;;;;;20.80;10.23;;;-1.90;96.20;;;;;;5070915;28;20412;-68
2020/12/29 08:08:03;;;;;;;24.95;12.02;;;-1.90;96.00;;;;;;5067774;28;20577;-68
2020/12/29 08:10:37;;;;;;;31.47;14.93;;;-1.90;96.30;;;;;;5071345;28;20745;-68
2020/12/29 08:13:19;;;;;;;32.30;15.65;;;-1.90;96.50;;;;;;5067752;28;20438;-68
2020/12/29 08:15:47;;;;;;;27.70;14.68;;;-1.60;96.50;;;;;;5053420;28;20470;-68
2020/12/29 08:18:18;;;;;;;31.40;16.65;;;-1.50;96.30;;;;;;5053759;28;20401;-68
2020/12/29 08:20:49;;;;;;;30.45;17.20;;;-1.60;95.90;;;;;;5060625;28;20485;-68
2020/12/29 08:23:22;;;;;;;29.42;14.98;;;-1.60;95.80;;;;;;5068613;28;20535;-68
2020/12/29 08:25:54;;;;;;;25.25;13.68;;;-1.70;95.90;;;;;;5071079;28;20469;-68
2020/12/29 08:28:25;;;;;;;19.63;9.35;;;-1.60;95.80;;;;;;5067429;28;20411;-68
2020/12/29 08:30:52;;;;;;;24.35;15.32;;;-1.60;96.10;;;;;;5069359;28;20411;-67
2020/12/29 08:33:21;;;;;;;17.65;9.80;;;-1.60;96.10;;;;;;5071544;28;20464;-68
2020/12/29 08:35:56;;;;;;;13.57;7.78;;;-1.50;96.20;;;;;;5069312;28;20462;-68
2020/12/29 08:38:31;;;;;;;14.30;8.40;;;-1.40;95.80;;;;;;5071830;28;20423;-68
2020/12/29 08:41:14;;;;;;;21.80;12.02;;;-1.20;95.90;;;;;;5067804;28;20427;-68
2020/12/29 08:43:54;;;;;;;20.10;10.97;;;-1.00;96.60;;;;;;5066339;28;20447;-68
2020/12/29 08:46:27;;;;;;;19.88;11.30;;;-0.60;96.10;;;;;;5059314;28;20425;-68
2020/12/29 08:48:55;;;;;;;19.92;10.80;;;-0.40;95.50;;;;;;5050454;28;20410;-68
2020/12/29 08:51:28;;;;;;;22.95;12.60;;;-0.10;95.00;;;;;;5065972;28;20523;-68
2020/12/29 08:54:08;;;;;;;21.35;13.13;;;0.10;94.70;;;;;;5071082;28;20910;-68
2020/12/29 08:56:35;;;;;;;21.65;12.13;;;0.30;94.50;;;;;;5067660;28;20466;-69
2020/12/29 08:59:12;;;;;;;22.30;11.93;;;0.50;94.10;;;;;;5071286;28;20473;-68
2020/12/29 09:01:41;;;;;;;22.17;13.10;;;0.70;93.70;;;;;;5067235;28;20455;-68
2020/12/29 09:04:30;;;;;;;28.57;16.30;;;0.80;93.40;;;;;;5072641;28;20438;-68
2020/12/29 09:07:00;;;;;;;28.58;15.98;;;1.10;93.30;;;;;;5068559;28;20461;-68
2020/12/29 09:09:28;;;;;;;24.92;13.15;;;1.30;93.00;;;;;;5071304;28;20492;-69
2020/12/29 09:12:09;;;;;;;26.17;13.23;;;1.50;92.50;;;;;;5079456;28;20905;-68
2020/12/29 09:14:36;;;;;;;15.70;8.75;;;1.70;91.90;;;;;;5071997;28;20408;-68
2020/12/29 09:17:09;;;;;;;15.03;7.70;;;2.00;92.20;;;;;;5069850;28;20439;-68
2020/12/29 09:19:38;;;;;;;15.30;8.30;;;2.20;91.40;;;;;;5090905;28;20413;-68
2020/12/29 09:22:11;;;;;;;12.27;6.97;;;2.50;91.00;;;;;;5067520;28;20926;-69
2020/12/29 09:24:58;;;;;;;12.48;7.15;;;2.80;90.30;;;;;;5070711;28;20392;-69
2020/12/29 09:27:32;;;;;;;11.75;5.50;;;3.10;89.00;;;;;;5074020;28;20449;-69
2020/12/29 09:30:11;;;;;;;11.23;6.00;;;3.60;87.50;;;;;;5069958;28;20447;-68
2020/12/29 09:32:40;;;;;;;9.77;5.43;;;4.30;83.00;;;;;;5066070;28;20419;-69
2020/12/29 09:35:26;;;;;;;8.77;5.00;;;5.00;79.80;;;;;;5068213;28;20427;-69
2020/12/29 09:37:57;;;;;;;6.70;3.50;;;5.50;77.10;;;;;;5066211;28;20469;-69
2020/12/29 09:40:24;;;;;;;3.95;2.78;;;6.10;74.80;;;;;;5070307;28;20472;-69
2020/12/29 09:42:51;;;;;;;5.83;2.87;;;6.60;72.40;;;;;;5071486;28;20425;-69
2020/12/29 09:45:22;;;;;;;3.70;2.40;;;7.00;70.90;;;;;;5089853;28;20402;-69
2020/12/29 09:47:51;;;;;;;4.70;2.50;;;7.30;69.70;;;;;;5080400;28;20865;-69
2020/12/29 09:50:18;;;;;;;4.45;2.50;;;7.80;67.70;;;;;;5088527;28;20401;-69
2020/12/29 09:52:44;;;;;;;6.38;4.00;;;8.20;66.50;;;;;;5067496;28;20439;-69
2020/12/29 09:55:10;;;;;;;13.70;8.20;;;8.50;65.60;;;;;;5068939;28;20468;-69
2020/12/29 09:57:40;;;;;;;10.85;7.43;;;9.00;65.30;;;;;;5070523;28;20465;-69
2020/12/29 10:00:09;;;;;;;12.65;8.48;;;9.30;61.90;;;;;;5066514;28;20399;-70
2020/12/29 10:02:35;;;;;;;13.50;8.82;;;9.50;60.40;;;;;;5069058;28;20952;-70
2020/12/29 10:05:02;;;;;;;12.60;7.85;;;9.60;60.90;;;;;;5079167;28;20410;-69
2020/12/29 10:07:31;;;;;;;11.20;7.33;;;9.60;59.90;;;;;;5089555;28;20416;-70
2020/12/29 10:09:57;;;;;;;10.35;6.13;;;9.90;60.00;;;;;;5075427;28;20403;-69
2020/12/29 10:12:24;;;;;;;5.87;3.90;;;10.10;58.70;;;;;;5081778;28;20888;-70
2020/12/29 10:14:50;;;;;;;5.32;3.15;;;10.40;60.20;;;;;;5078297;28;20427;-70
2020/12/29 10:17:17;;;;;;;5.15;3.00;;;10.40;58.30;;;;;;5076193;28;20405;-70
2020/12/29 10:19:46;;;;;;;4.70;2.97;;;10.40;58.40;;;;;;5082398;28;20439;-70
2020/12/29 10:22:12;;;;;;;6.05;2.50;;;10.20;58.50;;;;;;5069940;28;20459;-70
2020/12/29 10:24:41;;;;;;;4.30;2.65;;;10.00;59.20;;;;;;5066240;28;20403;-69
2020/12/29 10:27:08;;;;;;;4.33;2.70;;;9.70;60.30;;;;;;5070015;28;20407;-70
2020/12/29 10:29:34;;;;;;;6.10;2.90;;;9.80;60.10;;;;;;5068884;28;20411;-70
2020/12/29 10:32:01;;;;;;;6.32;3.10;;;9.50;61.30;;;;;;5065553;28;20415;-69
2020/12/29 10:34:29;;;;;;;5.72;3.38;;;9.00;62.20;;;;;;5069157;28;20412;-69
2020/12/29 10:36:55;;;;;;;5.93;3.30;;;8.60;63.50;;;;;;5065334;28;20403;-70
2020/12/29 10:39:22;;;;;;;6.57;3.22;;;8.30;65.00;;;;;;5069853;28;20454;-69
2020/12/29 10:41:50;;;;;;;6.15;3.30;;;8.20;66.00;;;;;;5066330;28;20891;-69
2020/12/29 10:44:19;;;;;;;5.43;3.45;;;8.20;66.00;;;;;;5069915;28;20431;-69
2020/12/29 10:46:47;;;;;;;9.18;3.60;;;8.10;67.10;;;;;;5065344;28;20476;-69
2020/12/29 10:49:14;;;;;;;5.75;3.53;;;8.10;66.60;;;;;;5070071;28;20533;-69
2020/12/29 10:51:40;;;;;;;5.60;3.30;;;8.20;66.10;;;;;;5066237;28;20916;-69
2020/12/29 10:54:07;;;;;;;6.03;3.13;;;8.30;66.20;;;;;;5070985;28;20460;-69
2020/12/29 10:56:36;;;;;;;6.07;2.83;;;8.10;66.60;;;;;;5069949;28;20418;-69
2020/12/29 10:59:03;;;;;;;5.30;3.50;;;8.00;66.60;;;;;;5073520;28;20439;-69
2020/12/29 11:01:31;;;;;;;5.03;3.30;;;7.80;67.00;;;;;;5072921;28;20463;-69
2020/12/29 11:03:58;;;;;;;7.47;3.55;;;7.90;68.00;;;;;;5069455;28;20824;-69
2020/12/29 11:06:26;;;;;;;5.90;3.53;;;7.80;67.50;;;;;;5073064;28;20465;-70
2020/12/29 11:08:53;;;;;;;6.30;3.17;;;7.80;67.10;;;;;;5069233;28;20404;-69
2020/12/29 11:11:19;;;;;;;5.18;3.20;;;7.90;67.40;;;;;;5075716;28;20454;-69
2020/12/29 11:13:49;;;;;;;11.40;5.65;;;8.10;67.40;;;;;;5071996;28;20412;-69
2020/12/29 11:16:17;;;;;;;16.80;7.65;;;8.20;66.30;;;;;;5090029;28;20449;-69
2020/12/29 11:18:45;;;;;;;15.52;7.32;;;8.50;66.70;;;;;;5081204;28;20405;-70
2020/12/29 11:21:17;;;;;;;10.23;5.43;;;9.00;65.50;;;;;;5081183;28;20534;-69
2020/12/29 11:23:47;;;;;;;8.82;4.22;;;9.50;62.80;;;;;;5067864;28;20407;-69
2020/12/29 11:26:20;;;;;;;6.07;3.55;;;9.60;61.20;;;;;;5069034;28;20442;-69
2020/12/29 11:28:50;;;;;;;5.63;3.50;;;9.20;62.70;;;;;;5064377;28;20479;-70
2020/12/29 11:31:18;;;;;;;5.82;3.55;;;9.30;63.90;;;;;;5079907;28;20410;-70
2020/12/29 11:33:45;;;;;;;4.45;3.42;;;9.30;63.80;;;;;;5081878;28;20945;-69
2020/12/29 11:36:19;;;;;;;9.45;3.55;;;9.50;63.60;;;;;;5058847;28;20475;-69
2020/12/29 11:38:46;;;;;;;5.68;3.33;;;9.10;63.90;;;;;;5074197;28;20398;-69
2020/12/29 11:41:13;;;;;;;7.18;3.80;;;9.10;63.40;;;;;;5071048;28;20814;-69
2020/12/29 11:43:42;;;;;;;7.10;3.67;;;9.10;64.40;;;;;;5072711;28;20432;-70
2020/12/29 11:46:12;;;;;;;7.20;3.40;;;9.60;63.90;;;;;;5070646;28;21627;-70
2020/12/29 11:48:38;;;;;;;4.97;3.45;;;10.40;62.00;;;;;;5091512;28;20866;-70
2020/12/29 11:51:08;;;;;;;5.80;3.70;;;11.30;60.10;;;;;;5073198;28;20399;-70
2020/12/29 11:53:35;;;;;;;5.30;3.60;;;11.70;56.80;;;;;;5072853;28;20818;-70
2020/12/29 11:56:03;;;;;;;5.17;3.93;;;11.90;57.20;;;;;;5067163;28;20420;-70
2020/12/29 11:58:31;;;;;;;5.43;4.15;;;12.10;56.80;;;;;;5072317;28;20418;-70
2020/12/29 12:00:57;;;;;;;5.78;4.43;;;12.30;56.20;;;;;;5068116;28;20473;-70
2020/12/29 12:03:24;;;;;;;5.88;4.00;;;12.50;54.30;;;;;;5070267;28;21317;-70
2020/12/29 12:05:53;;;;;;;9.18;5.18;;;12.40;55.50;;;;;;5065840;28;20497;-69
2020/12/29 12:08:20;;;;;;;7.45;4.85;;;12.40;56.70;;;;;;5071975;28;20408;-69
2020/12/29 12:10:46;;;;;;;5.90;4.45;;;12.30;55.50;;;;;;5067416;28;20447;-70
2020/12/29 12:13:12;;;;;;;6.68;4.70;;;12.10;56.00;;;;;;5073141;28;20899;-70
2020/12/29 12:15:55;;;;;;;6.88;4.30;;;12.30;54.60;;;;;;5068297;28;20473;-70
2020/12/29 12:18:36;;;;;;;6.25;4.63;;;12.00;55.30;;;;;;5050540;28;20433;-70
2020/12/29 12:21:03;;;;;;;9.05;4.95;;;12.00;54.70;;;;;;5062948;28;20439;-70
2020/12/29 12:23:29;;;;;;;6.80;5.00;;;11.30;56.70;;;;;;5067070;28;20407;-70
2020/12/29 12:25:56;;;;;;;7.45;5.13;;;10.50;58.50;;;;;;5071484;28;20482;-70
2020/12/29 12:28:23;;;;;;;7.57;4.87;;;9.90;60.80;;;;;;5067716;28;20501;-70
2020/12/29 12:30:52;;;;;;;9.10;4.87;;;9.60;62.60;;;;;;5070471;28;20418;-70
2020/12/29 12:33:21;;;;;;;7.85;4.40;;;9.50;62.40;;;;;;5065802;28;20407;-70
2020/12/29 12:35:53;;;;;;;7.20;4.30;;;9.30;62.20;;;;;;5071515;28;20456;-70
2020/12/29 12:38:19;;;;;;;5.95;3.92;;;9.00;63.80;;;;;;5068097;28;20484;-70
2020/12/29 12:40:48;;;;;;;6.20;4.00;;;8.80;64.70;;;;;;5069906;28;20436;-69
2020/12/29 12:43:16;;;;;;;5.83;3.90;;;8.70;65.40;;;;;;5067740;28;20431;-70
2020/12/29 12:45:45;;;;;;;8.75;4.80;;;8.60;65.90;;;;;;5071109;28;20851;-69
2020/12/29 12:48:11;;;;;;;8.33;4.50;;;8.50;65.20;;;;;;5071547;28;20485;-70
2020/12/29 12:50:40;;;;;;;5.80;3.80;;;8.50;65.50;;;;;;5082028;28;20407;-70
2020/12/29 12:53:09;;;;;;;6.47;3.95;;;8.30;66.30;;;;;;5067256;28;20407;-70
2020/12/29 12:55:37;;;;;;;6.03;3.73;;;8.00;66.40;;;;;;5068357;28;20435;-69